Time;durP1;ratioP1;P1;durP2;ratioP2;P2;SDS_P1;SDS_P2;PMS_P1;PMS_P2;Temp;Humidity;BMP_temperature;BMP_pressure;BME280_temperature;BME280_humidity;BME280_pressure;Samples;Min_cycle;Max_cycle;Signal;HPM_P1;HPM_P2
2021/11/21 00:01:03;;;;;;;51.33;31.03;;;9.20;99.90;;;;;;5032163;28;20028;-73
2021/11/21 00:03:29;;;;;;;49.57;29.77;;;9.20;99.80;;;;;;5032079;28;20065;-73
2021/11/21 00:05:55;;;;;;;51.50;31.30;;;9.20;99.90;;;;;;5032984;28;20061;-73
2021/11/21 00:08:20;;;;;;;51.40;30.60;;;9.20;99.80;;;;;;5033163;28;20029;-74
2021/11/21 00:10:46;;;;;;;50.67;31.17;;;9.20;99.80;;;;;;5033051;28;20049;-73
2021/11/21 00:13:12;;;;;;;55.23;33.20;;;9.30;99.80;;;;;;5032997;28;20478;-73
2021/11/21 00:15:41;;;;;;;53.33;33.03;;;9.20;99.80;;;;;;5030977;28;20037;-73
2021/11/21 00:18:08;;;;;;;54.23;31.90;;;9.20;99.80;;;;;;5032845;28;20026;-73
2021/11/21 00:20:34;;;;;;;53.30;32.43;;;9.20;99.80;;;;;;5031964;28;20075;-73
2021/11/21 00:23:00;;;;;;;48.20;30.50;;;9.20;99.80;;;;;;5032985;28;20101;-73
2021/11/21 00:25:26;;;;;;;54.07;30.93;;;9.20;99.80;;;;;;5048208;28;20112;-73
2021/11/21 00:27:52;;;;;;;51.73;30.43;;;9.20;99.80;;;;;;5031596;28;20022;-73
2021/11/21 00:30:18;;;;;;;53.93;31.07;;;9.20;99.80;;;;;;5032132;28;20026;-73
2021/11/21 00:32:44;;;;;;;54.23;32.93;;;9.20;99.80;;;;;;5032829;28;20104;-73
2021/11/21 00:35:09;;;;;;;51.77;30.63;;;9.20;99.80;;;;;;5031927;28;20184;-73
2021/11/21 00:37:36;;;;;;;50.30;29.57;;;9.20;99.80;;;;;;5032579;28;20049;-73
2021/11/21 00:40:03;;;;;;;50.53;31.23;;;9.20;99.90;;;;;;5048062;28;20041;-73
2021/11/21 00:42:29;;;;;;;50.37;30.17;;;9.10;99.90;;;;;;5031633;28;20367;-73
2021/11/21 00:44:56;;;;;;;50.37;30.77;;;9.10;99.90;;;;;;5031822;28;20103;-73
2021/11/21 00:47:21;;;;;;;57.63;32.03;;;9.20;99.90;;;;;;5031396;28;20436;-73
2021/11/21 00:49:47;;;;;;;54.77;32.13;;;9.20;99.90;;;;;;5032601;28;20065;-74
2021/11/21 00:52:13;;;;;;;52.10;31.93;;;9.20;99.80;;;;;;5048048;28;20026;-73
2021/11/21 00:57:04;;;;;;;52.10;30.27;;;9.20;99.90;;;;;;5036550;28;20037;-74
2021/11/21 00:59:30;;;;;;;56.20;31.87;;;9.10;99.90;;;;;;5034909;28;20121;-74
2021/11/21 01:01:56;;;;;;;54.17;30.73;;;9.10;99.90;;;;;;5036272;28;20030;-74
2021/11/21 01:04:22;;;;;;;53.33;30.07;;;9.10;99.90;;;;;;5034764;28;20041;-73
2021/11/21 01:06:48;;;;;;;54.07;30.67;;;9.10;99.90;;;;;;5036159;28;20101;-73
2021/11/21 01:09:15;;;;;;;51.50;30.53;;;9.10;99.90;;;;;;5036032;28;20022;-73
2021/11/21 01:11:41;;;;;;;52.03;29.63;;;9.10;99.90;;;;;;5051292;28;20034;-74
2021/11/21 01:14:08;;;;;;;50.03;29.40;;;9.20;99.90;;;;;;5035962;28;20075;-73
2021/11/21 01:16:34;;;;;;;47.97;27.67;;;9.10;99.90;;;;;;5036113;28;20034;-73
2021/11/21 01:19:00;;;;;;;47.30;28.70;;;9.20;99.90;;;;;;5036061;28;20504;-74
2021/11/21 01:21:26;;;;;;;49.17;28.70;;;9.10;99.90;;;;;;5034622;28;20057;-73
2021/11/21 01:23:53;;;;;;;45.80;27.93;;;9.10;99.90;;;;;;5035747;28;20033;-73
2021/11/21 01:26:19;;;;;;;48.93;28.87;;;9.20;99.90;;;;;;5034502;28;20022;-74
2021/11/21 01:28:44;;;;;;;45.53;28.30;;;9.20;99.90;;;;;;5035750;28;20083;-73
2021/11/21 01:31:10;;;;;;;49.33;27.60;;;9.10;99.90;;;;;;5035828;28;20440;-73
2021/11/21 01:33:37;;;;;;;45.73;27.47;;;9.20;99.90;;;;;;5035665;28;20363;-74
2021/11/21 01:36:04;;;;;;;46.80;28.13;;;9.10;99.90;;;;;;5034433;28;20040;-74
2021/11/21 01:38:30;;;;;;;47.90;28.43;;;9.20;99.90;;;;;;5035256;28;20068;-74
2021/11/21 01:40:56;;;;;;;46.07;28.93;;;9.10;99.90;;;;;;5034289;28;20516;-74
2021/11/21 01:43:22;;;;;;;47.33;27.60;;;9.20;99.90;;;;;;5034234;28;20037;-74
2021/11/21 01:45:48;;;;;;;48.30;29.60;;;9.20;99.90;;;;;;5035377;28;20038;-74
2021/11/21 01:48:13;;;;;;;48.63;29.13;;;9.10;99.90;;;;;;5035369;28;20033;-74
2021/11/21 01:50:41;;;;;;;48.13;28.70;;;9.20;99.90;;;;;;5035424;28;20483;-74
2021/11/21 01:53:08;;;;;;;47.23;29.47;;;9.10;99.90;;;;;;5033880;28;20022;-74
2021/11/21 01:55:35;;;;;;;50.20;29.00;;;9.20;99.90;;;;;;5035137;28;20025;-74
2021/11/21 01:58:02;;;;;;;49.17;28.97;;;9.20;99.90;;;;;;5035162;28;20037;-74
2021/11/21 02:00:31;;;;;;;51.43;30.20;;;9.20;99.90;;;;;;5033769;28;20025;-74
2021/11/21 02:02:57;;;;;;;50.50;28.93;;;9.20;99.90;;;;;;5035129;28;20029;-74
2021/11/21 02:05:23;;;;;;;52.37;29.37;;;9.20;99.90;;;;;;5032904;28;20034;-74
2021/11/21 02:07:49;;;;;;;53.57;32.67;;;9.20;99.90;;;;;;5035066;28;20022;-74
2021/11/21 02:10:18;;;;;;;54.53;31.73;;;9.20;99.90;;;;;;5035202;28;20032;-74
2021/11/21 02:12:45;;;;;;;52.87;31.80;;;9.20;99.90;;;;;;5034858;28;20433;-74
2021/11/21 02:15:15;;;;;;;55.73;31.33;;;9.20;99.90;;;;;;5034735;28;20025;-75
2021/11/21 02:17:40;;;;;;;54.17;31.13;;;9.20;99.90;;;;;;5034761;28;20061;-75
2021/11/21 02:20:09;;;;;;;59.23;33.97;;;9.20;99.90;;;;;;5033492;28;20108;-74
2021/11/21 02:22:40;;;;;;;53.43;30.73;;;9.20;99.90;;;;;;5033506;28;20059;-74
2021/11/21 02:25:07;;;;;;;56.90;31.90;;;9.20;99.90;;;;;;5034617;28;20021;-75
2021/11/21 02:27:33;;;;;;;54.47;31.13;;;9.20;99.90;;;;;;5033364;28;20018;-75
2021/11/21 02:29:59;;;;;;;57.03;32.97;;;9.20;99.90;;;;;;5034655;28;20036;-75
2021/11/21 02:32:25;;;;;;;55.00;31.37;;;9.20;99.90;;;;;;5033329;28;20359;-75
2021/11/21 02:34:51;;;;;;;55.50;31.17;;;9.20;99.90;;;;;;5034481;28;20040;-74
2021/11/21 02:37:17;;;;;;;59.23;31.93;;;9.20;99.90;;;;;;5033044;28;20136;-75
2021/11/21 02:39:42;;;;;;;60.80;33.30;;;9.20;99.90;;;;;;5049775;28;20047;-74
2021/11/21 02:42:09;;;;;;;57.60;32.57;;;9.20;99.90;;;;;;5034451;28;20056;-74
2021/11/21 02:44:35;;;;;;;56.93;30.63;;;9.20;99.90;;;;;;5034228;28;20029;-74
2021/11/21 02:47:01;;;;;;;61.87;33.77;;;9.20;99.90;;;;;;5034225;28;20032;-74
2021/11/21 02:49:26;;;;;;;61.53;33.40;;;9.20;99.90;;;;;;5049619;28;20040;-74
2021/11/21 02:51:52;;;;;;;62.13;33.80;;;9.20;99.90;;;;;;5034132;28;20108;-74
2021/11/21 02:54:18;;;;;;;59.20;32.37;;;9.20;99.90;;;;;;5034049;28;20030;-75
2021/11/21 02:56:44;;;;;;;55.50;30.17;;;9.20;99.90;;;;;;5034156;28;20029;-74
2021/11/21 02:59:09;;;;;;;61.43;35.07;;;9.20;99.90;;;;;;5032739;28;20075;-75
2021/11/21 03:01:35;;;;;;;58.73;33.53;;;9.20;99.90;;;;;;5032695;28;20022;-74
2021/11/21 03:04:01;;;;;;;62.57;33.13;;;9.20;99.90;;;;;;5049281;28;20040;-74
2021/11/21 03:06:28;;;;;;;62.20;33.43;;;9.20;99.90;;;;;;5049264;28;20033;-74
2021/11/21 03:08:55;;;;;;;61.10;33.03;;;9.20;99.90;;;;;;5034068;28;20100;-74
2021/11/21 03:11:26;;;;;;;64.40;32.13;;;9.20;99.90;;;;;;5032593;28;20075;-74
2021/11/21 03:13:52;;;;;;;60.83;31.03;;;9.20;99.90;;;;;;5033875;28;20470;-74
2021/11/21 03:16:18;;;;;;;59.93;32.70;;;9.20;99.90;;;;;;5048989;28;20037;-75
2021/11/21 03:18:44;;;;;;;62.23;33.93;;;9.20;99.90;;;;;;5032503;28;20144;-74
2021/11/21 03:21:09;;;;;;;64.63;33.53;;;9.10;99.90;;;;;;5033743;28;20470;-74
2021/11/21 03:23:35;;;;;;;62.43;31.80;;;9.20;99.90;;;;;;5033658;28;20022;-74
2021/11/21 03:26:00;;;;;;;62.83;32.93;;;9.20;99.90;;;;;;5048929;28;20396;-74
2021/11/21 03:28:26;;;;;;;59.60;32.60;;;9.10;99.90;;;;;;5033657;28;20021;-74
2021/11/21 03:30:52;;;;;;;65.90;34.53;;;9.20;99.90;;;;;;5032156;28;20021;-74
2021/11/21 03:33:17;;;;;;;61.10;31.33;;;9.20;99.90;;;;;;5048838;28;20032;-74
2021/11/21 03:35:43;;;;;;;60.63;31.83;;;9.30;99.90;;;;;;5032183;28;20036;-75
2021/11/21 03:38:09;;;;;;;62.93;31.87;;;9.20;99.90;;;;;;5048766;28;20052;-74
2021/11/21 03:40:34;;;;;;;64.77;35.43;;;9.30;99.90;;;;;;5033401;28;20064;-74
2021/11/21 03:43:02;;;;;;;64.93;33.10;;;9.30;99.90;;;;;;5048732;28;20061;-74
2021/11/21 03:45:28;;;;;;;61.77;33.27;;;9.30;99.90;;;;;;5033133;28;20030;-75
2021/11/21 03:47:54;;;;;;;62.60;33.17;;;9.20;99.90;;;;;;5033326;28;20025;-74
2021/11/21 03:50:20;;;;;;;64.13;32.93;;;9.30;99.90;;;;;;5031916;28;20044;-74
2021/11/21 03:52:46;;;;;;;58.77;30.17;;;9.30;99.90;;;;;;5031952;28;20549;-75
2021/11/21 03:55:14;;;;;;;65.43;32.57;;;9.40;99.90;;;;;;5033267;28;20038;-75
2021/11/21 03:57:40;;;;;;;62.10;31.67;;;9.20;99.90;;;;;;5033337;28;20045;-74
2021/11/21 04:00:09;;;;;;;62.87;32.57;;;9.30;99.90;;;;;;5032971;28;20125;-75
2021/11/21 04:02:34;;;;;;;60.20;32.93;;;9.30;99.90;;;;;;5033111;28;20017;-75
2021/11/21 04:05:00;;;;;;;59.27;31.73;;;9.30;99.90;;;;;;5033053;28;20363;-74
2021/11/21 04:07:26;;;;;;;63.40;33.23;;;9.30;99.90;;;;;;5031794;28;20094;-74
2021/11/21 04:09:52;;;;;;;59.57;31.93;;;9.20;99.90;;;;;;5048419;28;20030;-74
2021/11/21 04:12:17;;;;;;;64.93;32.97;;;9.30;99.90;;;;;;5033061;28;20359;-75
2021/11/21 04:14:43;;;;;;;64.70;32.07;;;9.30;99.90;;;;;;5032986;28;20049;-74
2021/11/21 04:17:09;;;;;;;65.17;33.13;;;9.30;99.90;;;;;;5048460;28;20029;-75
2021/11/21 04:19:35;;;;;;;61.57;31.80;;;9.20;99.90;;;;;;5031721;28;20036;-74
2021/11/21 04:22:00;;;;;;;63.80;31.63;;;9.20;99.90;;;;;;5032973;28;20112;-74
2021/11/21 04:24:26;;;;;;;64.43;34.33;;;9.20;99.90;;;;;;5032928;28;20030;-74
2021/11/21 04:26:52;;;;;;;66.40;33.83;;;9.20;99.90;;;;;;5031697;28;20018;-75
2021/11/21 04:29:18;;;;;;;65.13;33.23;;;9.20;99.90;;;;;;5036328;28;20084;-75
2021/11/21 04:31:44;;;;;;;65.03;34.20;;;9.20;99.90;;;;;;5036877;28;20482;-75
2021/11/21 04:34:10;;;;;;;64.23;34.10;;;9.20;99.90;;;;;;5036815;28;20096;-75
2021/11/21 04:36:36;;;;;;;67.30;33.17;;;9.20;99.90;;;;;;5035526;28;20120;-75
2021/11/21 04:39:04;;;;;;;64.67;33.03;;;9.20;99.90;;;;;;5051948;28;20092;-75
2021/11/21 04:41:30;;;;;;;71.77;35.23;;;9.10;99.90;;;;;;5036641;28;20068;-75
2021/11/21 04:43:57;;;;;;;68.13;32.83;;;9.10;99.90;;;;;;5036448;28;20483;-75
2021/11/21 04:46:24;;;;;;;67.80;32.43;;;9.10;99.90;;;;;;5036586;28;20048;-75
2021/11/21 04:48:50;;;;;;;64.90;31.50;;;9.20;99.90;;;;;;5036567;28;20025;-75
2021/11/21 04:51:15;;;;;;;64.27;31.90;;;9.20;99.90;;;;;;5036491;28;20037;-75
2021/11/21 04:53:41;;;;;;;64.30;32.50;;;9.20;99.90;;;;;;5036616;28;20032;-75
2021/11/21 04:56:07;;;;;;;60.23;31.90;;;9.20;99.90;;;;;;5036385;28;20032;-75
2021/11/21 04:58:33;;;;;;;66.47;32.10;;;9.20;99.90;;;;;;5051697;28;20489;-75
2021/11/21 05:00:59;;;;;;;58.43;29.03;;;9.20;99.90;;;;;;5036144;28;20033;-75
2021/11/21 05:03:24;;;;;;;60.63;30.93;;;9.20;99.90;;;;;;5036209;28;20029;-76
2021/11/21 05:05:50;;;;;;;61.87;31.10;;;9.20;99.90;;;;;;5051531;28;20359;-75
2021/11/21 05:08:16;;;;;;;61.03;30.43;;;9.20;99.90;;;;;;5034926;28;20021;-75
2021/11/21 05:10:42;;;;;;;57.83;27.80;;;9.20;99.90;;;;;;5051416;28;20052;-75
2021/11/21 05:13:08;;;;;;;47.80;25.13;;;9.30;99.90;;;;;;5036106;28;20025;-75
2021/11/21 05:15:34;;;;;;;47.20;23.60;;;9.30;99.90;;;;;;5051492;28;20033;-75
2021/11/21 05:18:00;;;;;;;38.33;20.17;;;9.20;99.90;;;;;;5035995;28;20363;-75
2021/11/21 05:20:26;;;;;;;38.87;19.43;;;9.30;99.90;;;;;;5034719;28;20025;-75
2021/11/21 05:22:51;;;;;;;36.10;18.93;;;9.30;99.90;;;;;;5035907;28;20059;-75
2021/11/21 05:25:18;;;;;;;35.23;18.77;;;9.40;99.90;;;;;;5035769;28;20033;-75
2021/11/21 05:27:46;;;;;;;31.27;16.30;;;9.40;99.90;;;;;;5051008;28;20548;-75
2021/11/21 05:30:13;;;;;;;31.70;16.20;;;9.40;99.90;;;;;;5035934;28;20526;-75
2021/11/21 05:32:39;;;;;;;28.47;14.10;;;9.40;99.90;;;;;;5034545;28;20022;-75
2021/11/21 05:35:06;;;;;;;30.40;15.60;;;9.40;99.90;;;;;;5050949;28;20025;-75
2021/11/21 05:37:31;;;;;;;29.93;14.87;;;9.50;99.90;;;;;;5050857;28;20045;-73
2021/11/21 05:39:57;;;;;;;29.03;15.43;;;9.50;99.90;;;;;;5036721;28;20385;-73
2021/11/21 05:42:23;;;;;;;29.40;15.57;;;9.50;99.90;;;;;;5023502;28;20083;-72
2021/11/21 05:44:48;;;;;;;30.47;14.70;;;9.50;99.90;;;;;;5036719;28;20095;-72
2021/11/21 05:47:14;;;;;;;27.33;14.20;;;9.50;99.90;;;;;;5027334;28;20022;-73
2021/11/21 05:49:40;;;;;;;26.13;13.43;;;9.50;99.90;;;;;;5035427;28;20069;-72
2021/11/21 05:52:06;;;;;;;22.37;12.10;;;9.50;99.90;;;;;;5046438;28;20029;-72
2021/11/21 05:54:31;;;;;;;25.57;13.47;;;9.60;99.90;;;;;;5016719;28;20041;-75
2021/11/21 05:56:57;;;;;;;23.97;13.70;;;9.60;99.90;;;;;;5034223;28;20030;-75
2021/11/21 05:59:23;;;;;;;24.03;14.07;;;9.60;99.90;;;;;;5034905;28;20036;-75
2021/11/21 06:01:48;;;;;;;24.60;12.60;;;9.60;99.90;;;;;;5035124;28;20045;-75
2021/11/21 06:04:14;;;;;;;23.40;12.53;;;9.60;99.90;;;;;;5017420;28;20104;-75
2021/11/21 06:06:39;;;;;;;26.33;13.60;;;9.70;99.90;;;;;;5035235;28;20104;-75
2021/11/21 06:09:05;;;;;;;23.23;12.50;;;9.60;99.90;;;;;;5034022;28;20073;-75
2021/11/21 06:11:31;;;;;;;26.00;13.17;;;9.60;99.90;;;;;;5034939;28;20029;-75
2021/11/21 06:13:57;;;;;;;24.40;11.87;;;9.70;99.90;;;;;;5035038;28;20022;-76
2021/11/21 06:16:22;;;;;;;26.17;13.43;;;9.60;99.90;;;;;;5035293;28;20347;-75
2021/11/21 06:18:48;;;;;;;24.43;12.37;;;9.70;99.90;;;;;;5017374;28;20381;-75
2021/11/21 06:21:14;;;;;;;24.87;11.87;;;9.60;99.90;;;;;;5034909;28;20026;-75
2021/11/21 06:23:39;;;;;;;24.97;12.77;;;9.70;99.90;;;;;;5034857;28;20069;-75
2021/11/21 06:26:05;;;;;;;24.00;12.70;;;9.60;99.90;;;;;;5034727;28;20033;-75
2021/11/21 06:28:32;;;;;;;23.27;11.97;;;9.70;99.90;;;;;;5034600;28;20025;-74
2021/11/21 06:30:58;;;;;;;24.17;11.47;;;9.70;99.90;;;;;;5033392;28;20466;-75
2021/11/21 06:33:24;;;;;;;25.57;12.67;;;9.70;99.90;;;;;;5034641;28;20027;-75
2021/11/21 06:35:50;;;;;;;25.33;11.87;;;9.70;99.90;;;;;;5034498;28;20104;-75
2021/11/21 06:38:17;;;;;;;23.97;12.93;;;9.80;99.90;;;;;;5033097;28;20038;-74
2021/11/21 06:40:44;;;;;;;24.57;11.77;;;9.70;99.90;;;;;;5034352;28;20026;-74
2021/11/21 06:43:10;;;;;;;25.37;12.87;;;9.70;99.90;;;;;;5033285;28;20025;-75
2021/11/21 06:45:35;;;;;;;20.43;11.43;;;9.70;99.90;;;;;;5033169;28;20508;-74
2021/11/21 06:48:01;;;;;;;22.10;11.77;;;9.70;99.90;;;;;;5034243;28;20030;-74
2021/11/21 06:50:27;;;;;;;22.17;12.43;;;9.70;99.90;;;;;;5032810;28;20052;-74
2021/11/21 06:52:53;;;;;;;22.50;11.50;;;9.70;99.90;;;;;;5032886;28;20021;-74
2021/11/21 06:55:19;;;;;;;22.30;12.30;;;9.70;99.90;;;;;;5034055;28;20081;-74
2021/11/21 06:57:45;;;;;;;20.47;10.53;;;9.70;99.90;;;;;;5034108;28;20021;-74
2021/11/21 07:00:15;;;;;;;18.87;9.90;;;9.60;99.90;;;;;;5033956;28;20030;-74
2021/11/21 07:02:41;;;;;;;20.83;10.17;;;9.70;99.90;;;;;;5033955;28;20056;-74
2021/11/21 07:05:08;;;;;;;18.20;9.20;;;9.70;99.90;;;;;;5033815;28;20045;-75
2021/11/21 07:07:34;;;;;;;17.60;9.13;;;9.70;99.90;;;;;;5033750;28;20068;-74
2021/11/21 07:10:00;;;;;;;19.27;9.70;;;9.70;99.90;;;;;;5033768;28;20075;-74
2021/11/21 07:12:26;;;;;;;17.73;8.63;;;9.80;99.90;;;;;;5032546;28;20033;-74
2021/11/21 07:14:51;;;;;;;19.27;9.70;;;9.70;99.90;;;;;;5033770;28;20061;-74
2021/11/21 07:17:17;;;;;;;16.53;9.17;;;9.70;99.90;;;;;;5015961;28;20064;-74
2021/11/21 07:19:43;;;;;;;17.00;8.90;;;9.70;99.90;;;;;;5032455;28;20113;-74
2021/11/21 07:22:08;;;;;;;17.43;7.10;;;9.80;99.90;;;;;;5032375;28;20143;-74
2021/11/21 07:24:34;;;;;;;13.03;6.80;;;9.70;99.90;;;;;;5033578;28;20029;-74
2021/11/21 07:27:00;;;;;;;14.23;7.20;;;9.70;99.90;;;;;;5033583;28;20021;-73
2021/11/21 07:29:29;;;;;;;13.27;5.40;;;9.70;99.90;;;;;;5033485;28;20025;-74
2021/11/21 07:31:56;;;;;;;16.07;6.23;;;9.70;99.90;;;;;;5049050;28;20079;-74
2021/11/21 07:34:22;;;;;;;12.47;5.50;;;9.70;99.90;;;;;;5065457;28;20453;-75
2021/11/21 07:36:48;;;;;;;14.07;5.17;;;9.80;99.90;;;;;;5032127;28;20056;-74
2021/11/21 07:39:13;;;;;;;14.07;5.43;;;9.70;99.90;;;;;;5048480;28;20053;-74
2021/11/21 07:41:39;;;;;;;11.77;4.63;;;9.70;99.90;;;;;;5065366;28;20029;-74
2021/11/21 07:44:07;;;;;;;10.97;4.80;;;9.70;99.90;;;;;;5032172;28;20116;-71
2021/11/21 07:46:32;;;;;;;13.43;4.27;;;9.70;99.90;;;;;;5048952;28;20017;-72
2021/11/21 07:48:58;;;;;;;11.83;4.43;;;9.70;99.90;;;;;;5032128;28;20044;-72
2021/11/21 07:51:24;;;;;;;11.40;4.13;;;9.70;99.90;;;;;;5032040;28;20030;-72
2021/11/21 07:53:50;;;;;;;12.60;4.67;;;9.60;99.90;;;;;;5033268;28;20022;-71
2021/11/21 07:56:17;;;;;;;12.43;4.83;;;9.70;99.90;;;;;;5048526;28;20129;-72
2021/11/21 07:58:43;;;;;;;13.10;4.97;;;9.70;99.90;;;;;;5033034;28;20493;-73
2021/11/21 08:01:09;;;;;;;11.87;4.23;;;9.70;99.90;;;;;;5033068;28;20112;-72
2021/11/21 08:03:34;;;;;;;11.43;4.30;;;9.70;99.90;;;;;;5032367;28;20061;-73
2021/11/21 08:06:00;;;;;;;11.93;3.70;;;9.70;99.90;;;;;;5048354;28;20033;-72
2021/11/21 08:08:26;;;;;;;12.03;3.57;;;9.70;99.90;;;;;;5032845;28;20034;-72
2021/11/21 08:10:52;;;;;;;9.50;3.37;;;9.70;99.90;;;;;;5032969;28;20104;-72
2021/11/21 08:13:18;;;;;;;10.87;3.37;;;9.70;99.90;;;;;;5033144;28;20035;-72
2021/11/21 08:15:47;;;;;;;12.60;2.90;;;9.70;99.90;;;;;;5031882;28;20047;-72
2021/11/21 08:18:13;;;;;;;10.97;3.07;;;9.70;99.90;;;;;;5031827;28;20026;-71
2021/11/21 08:20:39;;;;;;;16.37;3.13;;;9.80;99.90;;;;;;5031741;28;20486;-74
2021/11/21 08:23:05;;;;;;;13.47;2.70;;;9.80;99.90;;;;;;5032996;28;20030;-74
2021/11/21 08:25:30;;;;;;;12.07;2.90;;;9.80;99.90;;;;;;5031729;28;20038;-74
2021/11/21 08:27:56;;;;;;;11.40;2.63;;;9.80;99.90;;;;;;5032827;28;20056;-75
2021/11/21 08:30:24;;;;;;;7.87;2.43;;;9.80;99.90;;;;;;5032804;28;20064;-75
2021/11/21 08:32:50;;;;;;;9.00;2.00;;;9.80;99.90;;;;;;5031834;28;20029;-75
2021/11/21 08:35:16;;;;;;;8.03;2.00;;;9.80;99.80;;;;;;5032781;28;20037;-73
2021/11/21 08:37:42;;;;;;;10.60;2.30;;;9.80;99.80;;;;;;5032680;28;20049;-73
2021/11/21 08:40:09;;;;;;;10.60;1.87;;;9.80;99.70;;;;;;5031695;28;20040;-72
2021/11/21 08:42:36;;;;;;;7.53;2.07;;;9.90;99.70;;;;;;5043650;28;20438;-72
2021/11/21 08:45:04;;;;;;;6.80;1.50;;;9.90;99.70;;;;;;5031408;28;20481;-72
2021/11/21 08:47:29;;;;;;;5.67;1.33;;;9.90;99.70;;;;;;5046246;28;20032;-72
2021/11/21 08:49:55;;;;;;;9.20;1.37;;;9.90;99.60;;;;;;5031587;28;20026;-72
2021/11/21 08:52:21;;;;;;;8.77;1.50;;;9.90;99.60;;;;;;5032717;28;20020;-72
2021/11/21 08:54:46;;;;;;;14.07;1.73;;;9.90;99.50;;;;;;5032164;28;20033;-72
2021/11/21 08:57:12;;;;;;;10.07;2.20;;;9.90;99.30;;;;;;5047302;28;20066;-72
2021/11/21 08:59:38;;;;;;;8.83;1.80;;;9.90;99.30;;;;;;5031131;28;20029;-76
2021/11/21 09:02:04;;;;;;;9.30;1.20;;;9.90;99.20;;;;;;5032422;28;20065;-76
2021/11/21 09:04:29;;;;;;;8.53;1.13;;;9.90;99.10;;;;;;5032515;28;20037;-76
2021/11/21 09:06:55;;;;;;;10.80;1.57;;;9.90;99.00;;;;;;5047740;28;20022;-76
2021/11/21 09:09:21;;;;;;;10.33;1.53;;;9.90;99.00;;;;;;5047868;28;20083;-76
2021/11/21 09:11:46;;;;;;;8.03;1.30;;;10.00;98.90;;;;;;5031260;28;20410;-75
2021/11/21 09:14:13;;;;;;;8.90;1.20;;;10.00;98.90;;;;;;5033890;28;20450;-76
2021/11/21 09:16:39;;;;;;;9.63;1.20;;;10.00;99.10;;;;;;5036148;28;20017;-76
2021/11/21 09:19:04;;;;;;;11.77;1.10;;;10.00;98.80;;;;;;5035961;28;20030;-75
2021/11/21 09:21:30;;;;;;;5.73;0.97;;;10.10;98.80;;;;;;5034760;28;20394;-76
2021/11/21 09:23:56;;;;;;;12.37;1.00;;;10.10;98.90;;;;;;5051250;28;20115;-76
2021/11/21 09:26:21;;;;;;;10.53;1.63;;;10.10;98.40;;;;;;5034699;28;20034;-76
2021/11/21 09:28:47;;;;;;;11.67;1.63;;;10.10;98.30;;;;;;5034601;28;20029;-76
2021/11/21 09:31:13;;;;;;;10.23;1.10;;;10.10;98.20;;;;;;5050979;28;20112;-76
2021/11/21 09:33:38;;;;;;;8.53;1.30;;;10.20;98.20;;;;;;5034465;28;20026;-76
2021/11/21 09:36:05;;;;;;;9.63;1.70;;;10.10;98.10;;;;;;5067467;28;20113;-76
2021/11/21 09:38:31;;;;;;;10.87;0.90;;;10.10;97.90;;;;;;5035556;28;20091;-76
2021/11/21 09:40:57;;;;;;;9.20;1.03;;;10.10;97.80;;;;;;5050708;28;20033;-76
2021/11/21 09:43:23;;;;;;;10.87;0.73;;;10.10;97.60;;;;;;5050568;28;20021;-76
2021/11/21 09:45:49;;;;;;;9.57;1.50;;;10.10;97.80;;;;;;5035327;28;20116;-76
2021/11/21 09:48:15;;;;;;;11.17;0.63;;;10.10;97.90;;;;;;5034018;28;20108;-76
2021/11/21 09:50:43;;;;;;;8.87;0.90;;;10.10;97.60;;;;;;5033832;28;20505;-76
2021/11/21 09:53:10;;;;;;;9.77;0.97;;;10.10;97.50;;;;;;5034166;28;20029;-76
2021/11/21 09:55:36;;;;;;;12.73;1.43;;;10.20;97.40;;;;;;5035180;28;20025;-76
2021/11/21 09:58:03;;;;;;;9.70;1.23;;;10.20;97.30;;;;;;5035170;28;20033;-76
2021/11/21 10:00:30;;;;;;;7.83;0.60;;;10.10;97.20;;;;;;5035075;28;20021;-76
2021/11/21 10:03:04;;;;;;;5.63;0.80;;;10.20;97.30;;;;;;5050466;28;20030;-76
2021/11/21 10:05:35;;;;;;;7.65;0.95;;;10.30;97.30;;;;;;5035083;28;20381;-76
2021/11/21 10:08:03;;;;;;;11.17;1.10;;;10.20;97.20;;;;;;5035059;28;20017;-76
2021/11/21 10:10:43;;;;;;;13.77;1.33;;;10.30;97.20;;;;;;5034891;28;20504;-76
2021/11/21 10:13:45;;;;;;;9.87;0.63;;;10.30;97.10;;;;;;5035035;28;20049;-76
2021/11/21 10:16:20;;;;;;;10.80;0.88;;;10.30;97.00;;;;;;5013042;28;20117;-76
2021/11/21 10:18:54;;;;;;;9.77;0.90;;;10.40;97.10;;;;;;5034805;28;20025;-76
2021/11/21 10:21:28;;;;;;;11.63;0.90;;;10.40;97.00;;;;;;5034742;28;20075;-76
2021/11/21 10:24:21;;;;;;;4.53;0.70;;;10.40;97.00;;;;;;5034840;28;20488;-76
2021/11/21 10:27:01;;;;;;;10.63;1.27;;;10.40;96.90;;;;;;5034133;28;20033;-76
2021/11/21 10:29:33;;;;;;;10.53;1.53;;;10.40;96.60;;;;;;5034611;28;20032;-76
2021/11/21 10:32:02;;;;;;;7.83;1.10;;;10.40;96.50;;;;;;5049993;28;20179;-76
2021/11/21 10:34:28;;;;;;;10.23;1.00;;;10.50;96.60;;;;;;5049960;28;20030;-75
2021/11/21 10:36:55;;;;;;;7.67;1.10;;;10.50;96.50;;;;;;5034460;28;20033;-76
2021/11/21 10:39:30;;;;;;;9.37;1.50;;;10.50;96.30;;;;;;5034116;28;20033;-75
2021/11/21 10:42:00;;;;;;;7.35;1.05;;;10.60;96.30;;;;;;5032837;28;20497;-75
2021/11/21 10:44:26;;;;;;;10.07;0.97;;;10.50;96.30;;;;;;5032880;28;20482;-75
2021/11/21 10:46:56;;;;;;;9.65;0.98;;;10.60;96.40;;;;;;5049439;28;20022;-76
2021/11/21 10:49:36;;;;;;;7.77;1.20;;;10.70;96.10;;;;;;5034313;28;20035;-76
2021/11/21 10:52:06;;;;;;;11.10;2.03;;;10.70;96.10;;;;;;5034118;28;20032;-77
2021/11/21 10:54:40;;;;;;;12.02;1.38;;;10.80;95.90;;;;;;5049499;28;20044;-76
2021/11/21 10:57:09;;;;;;;10.43;1.20;;;10.90;96.20;;;;;;5034220;28;20025;-77
2021/11/21 10:59:53;;;;;;;8.90;1.27;;;11.10;96.20;;;;;;5033985;28;20030;-77
2021/11/21 11:02:28;;;;;;;6.05;0.95;;;11.30;96.30;;;;;;5033961;28;20101;-77
2021/11/21 11:05:18;;;;;;;15.23;1.50;;;11.40;96.20;;;;;;5032398;28;20474;-76
2021/11/21 11:07:46;;;;;;;7.38;1.20;;;11.60;96.30;;;;;;5032738;28;20432;-76
2021/11/21 11:10:25;;;;;;;7.22;1.20;;;12.00;97.30;;;;;;5049130;28;20029;-76
2021/11/21 11:12:52;;;;;;;8.00;1.23;;;12.60;97.20;;;;;;5033740;28;20029;-77
2021/11/21 11:15:18;;;;;;;10.43;1.25;;;13.10;97.10;;;;;;5033588;28;20036;-75
2021/11/21 11:17:44;;;;;;;8.60;1.00;;;13.60;96.90;;;;;;5032374;28;20025;-77
2021/11/21 11:20:14;;;;;;;10.15;1.30;;;14.00;96.10;;;;;;5049160;28;20389;-76
2021/11/21 11:22:40;;;;;;;7.43;1.02;;;14.40;95.50;;;;;;5065555;28;20109;-76
2021/11/21 11:25:13;;;;;;;7.88;1.50;;;14.80;95.10;;;;;;5049194;28;20036;-76
2021/11/21 11:27:44;;;;;;;6.47;1.23;;;15.30;93.60;;;;;;5033601;28;20029;-76
2021/11/21 11:30:11;;;;;;;8.43;1.08;;;15.70;93.00;;;;;;5048760;28;20482;-76
2021/11/21 11:32:42;;;;;;;9.23;1.20;;;16.10;92.40;;;;;;5032379;28;20033;-76
2021/11/21 11:35:19;;;;;;;8.20;1.20;;;16.50;91.20;;;;;;5033481;28;20452;-77
2021/11/21 11:37:48;;;;;;;6.75;1.08;;;17.00;89.70;;;;;;5032262;28;20466;-77
2021/11/21 11:40:44;;;;;;;7.18;1.10;;;17.30;89.20;;;;;;5033509;28;20032;-77
2021/11/21 11:43:16;;;;;;;6.47;1.10;;;17.70;84.40;;;;;;5056876;28;20045;-77
2021/11/21 11:45:48;;;;;;;4.28;0.93;;;17.80;82.60;;;;;;5033183;28;20478;-77
2021/11/21 11:48:32;;;;;;;5.97;0.85;;;17.70;79.20;;;;;;5033326;28;20068;-76
2021/11/21 11:51:06;;;;;;;3.53;0.57;;;17.40;76.80;;;;;;5033452;28;20047;-76
2021/11/21 11:53:43;;;;;;;5.88;0.70;;;17.60;78.40;;;;;;5032063;28;20029;-76
2021/11/21 11:56:14;;;;;;;8.10;1.10;;;17.60;75.20;;;;;;5033315;28;20025;-76
2021/11/21 11:58:52;;;;;;;5.55;0.70;;;17.80;75.00;;;;;;5048403;28;20029;-76
2021/11/21 12:01:38;;;;;;;7.57;0.63;;;18.30;74.60;;;;;;5033080;28;20373;-76
2021/11/21 12:04:24;;;;;;;8.15;1.10;;;18.30;69.00;;;;;;5033686;28;20172;-75
2021/11/21 12:06:58;;;;;;;5.45;1.00;;;17.90;66.10;;;;;;5029127;28;20390;-76
2021/11/21 12:09:31;;;;;;;;;;;17.40;64.50;;;;;;5033450;28;20029;-76
2021/11/21 12:11:59;;;;;;;4.72;0.68;;;17.30;65.20;;;;;;5033086;28;19905;-74
2021/11/21 12:14:31;;;;;;;5.40;0.73;;;17.00;64.50;;;;;;5032639;28;20026;-74
2021/11/21 12:17:01;;;;;;;8.75;0.90;;;16.60;64.20;;;;;;5078926;28;20028;-75
2021/11/21 12:19:39;;;;;;;5.30;1.42;;;16.10;63.90;;;;;;5050764;28;20029;-74
2021/11/21 12:22:05;;;;;;;3.90;0.75;;;15.70;64.50;;;;;;5050938;28;20083;-74
2021/11/21 12:24:33;;;;;;;6.65;0.60;;;15.40;65.50;;;;;;5034897;28;20504;-75
2021/11/21 12:27:00;;;;;;;5.47;0.57;;;15.00;66.30;;;;;;5052255;28;20025;-76
2021/11/21 12:29:34;;;;;;;5.80;0.65;;;14.80;67.20;;;;;;5052262;28;20032;-76
2021/11/21 12:32:17;;;;;;;;;;;14.90;68.70;;;;;;5081828;28;20044;-76
2021/11/21 12:34:43;;;;;;;4.50;0.80;;;15.00;67.90;;;;;;5052372;28;20265;-76
2021/11/21 12:37:26;;;;;;;7.35;1.10;;;15.50;70.10;;;;;;5052407;28;20029;-75
2021/11/21 12:40:08;;;;;;;2.15;0.43;;;16.10;69.80;;;;;;5052532;28;20031;-75
2021/11/21 12:42:36;;;;;;;5.13;1.00;;;16.90;68.90;;;;;;5052426;28;20024;-76
2021/11/21 12:45:06;;;;;;;4.32;0.60;;;17.90;68.60;;;;;;5052399;28;20071;-76